createdAt,value
2022-10-17T00:01:10.872Z,10.63
2022-10-17T00:03:39.387Z,12.67
2022-10-17T00:06:08.353Z,11.43
2022-10-17T00:08:35.882Z,8.57
2022-10-17T00:11:05.331Z,10.55
2022-10-17T00:16:01.413Z,14.25
2022-10-17T00:18:28.713Z,12.18
2022-10-17T00:20:56.330Z,13.30
2022-10-17T00:23:24.261Z,13.60
2022-10-17T00:26:01.940Z,13.27
2022-10-17T00:28:29.368Z,13.52
2022-10-17T00:31:01.445Z,11.27
2022-10-17T00:33:28.993Z,14.25
2022-10-17T00:36:07.521Z,11.52
2022-10-17T00:38:36.217Z,11.45
2022-10-17T00:41:03.932Z,15.10
2022-10-17T00:43:49.269Z,12.43
2022-10-17T00:46:18.777Z,11.93
2022-10-17T00:51:13.516Z,13.68
2022-10-17T00:53:41.358Z,12.20
2022-10-17T00:56:09.297Z,14.18
2022-10-17T00:58:36.667Z,13.25
2022-10-17T01:01:05.865Z,13.82
2022-10-17T01:03:33.260Z,14.80
2022-10-17T01:06:00.736Z,15.88
2022-10-17T01:08:28.293Z,15.55
2022-10-17T01:11:04.935Z,16.15
2022-10-17T01:13:39.696Z,16.63
2022-10-17T01:16:14.147Z,16.08
2022-10-17T01:19:03.438Z,18.15
2022-10-17T01:21:32.642Z,15.48
2022-10-17T01:24:03.079Z,15.77
2022-10-17T01:26:33.359Z,19.83
2022-10-17T01:29:08.429Z,16.67
2022-10-17T01:31:35.772Z,17.65
2022-10-17T01:34:03.180Z,17.80
2022-10-17T01:36:50.740Z,20.00
2022-10-17T01:39:26.954Z,18.45
2022-10-17T01:42:07.145Z,20.37
2022-10-17T01:44:37.793Z,15.73
2022-10-17T01:47:15.151Z,22.30
2022-10-17T01:49:44.628Z,18.52
2022-10-17T01:52:24.075Z,21.55
2022-10-17T01:54:56.607Z,20.88
2022-10-17T01:57:31.651Z,21.50
2022-10-17T02:00:01.408Z,17.60
2022-10-17T02:02:29.833Z,20.35
2022-10-17T02:04:58.170Z,18.08
2022-10-17T02:07:25.843Z,18.77
2022-10-17T02:09:53.474Z,18.05
2022-10-17T02:12:36.640Z,20.70
2022-10-17T02:15:22.422Z,18.55
2022-10-17T02:17:49.761Z,17.50
2022-10-17T02:20:18.633Z,23.42
2022-10-17T02:22:50.160Z,19.25
2022-10-17T02:25:38.930Z,20.83
2022-10-17T02:28:12.133Z,20.52
2022-10-17T02:30:47.980Z,22.15
2022-10-17T02:33:28.299Z,20.30
2022-10-17T02:35:59.026Z,21.65
2022-10-17T02:38:28.784Z,20.45
2022-10-17T02:40:56.649Z,30.98
2022-10-17T02:43:24.513Z,23.88
2022-10-17T02:45:54.083Z,18.60
2022-10-17T02:48:31.601Z,19.52
2022-10-17T02:51:05.694Z,23.02
2022-10-17T02:53:43.836Z,24.95
2022-10-17T02:56:16.510Z,20.60
2022-10-17T02:58:46.953Z,21.90
2022-10-17T03:01:15.101Z,21.73
2022-10-17T03:03:42.360Z,20.95
2022-10-17T03:06:09.633Z,24.65
2022-10-17T03:11:04.459Z,25.42
2022-10-17T03:16:03.635Z,23.02
2022-10-17T03:18:31.250Z,22.00
2022-10-17T03:21:04.048Z,24.02
2022-10-17T03:23:31.391Z,24.23
2022-10-17T03:26:04.531Z,22.75
2022-10-17T03:28:32.807Z,25.50
2022-10-17T03:31:00.360Z,24.50
2022-10-17T03:33:27.953Z,23.52
2022-10-17T03:35:57.421Z,22.70
2022-10-17T03:38:25.024Z,23.13
2022-10-17T03:40:56.494Z,25.88
2022-10-17T03:43:27.534Z,23.75
2022-10-17T03:45:54.799Z,28.30
2022-10-17T03:48:22.155Z,25.02
2022-10-17T03:50:49.559Z,22.88
2022-10-17T03:53:17.005Z,25.00
2022-10-17T03:55:44.777Z,23.27
2022-10-17T03:58:12.102Z,24.45
2022-10-17T04:00:39.511Z,22.38
2022-10-17T04:03:12.618Z,24.08
2022-10-17T04:05:42.261Z,23.33
2022-10-17T04:08:12.125Z,21.38
2022-10-17T04:11:07.122Z,20.73
2022-10-17T04:13:35.105Z,22.92
2022-10-17T04:16:11.480Z,21.77
2022-10-17T04:18:44.759Z,23.08
2022-10-17T04:21:12.961Z,22.30
2022-10-17T04:23:41.231Z,21.73
2022-10-17T04:26:20.229Z,22.10
2022-10-17T04:28:47.724Z,23.05
2022-10-17T04:31:15.683Z,22.25
2022-10-17T04:34:02.974Z,24.52
2022-10-17T04:36:30.550Z,22.30
2022-10-17T04:38:58.034Z,25.67
2022-10-17T04:41:25.922Z,22.67
2022-10-17T04:43:53.296Z,23.95
2022-10-17T04:46:22.027Z,25.20
2022-10-17T04:48:49.799Z,23.25
2022-10-17T04:51:20.626Z,26.30
2022-10-17T04:54:09.344Z,24.40
2022-10-17T04:56:39.531Z,24.50
2022-10-17T04:59:06.896Z,23.48
2022-10-17T05:01:34.784Z,21.02
2022-10-17T05:04:02.080Z,23.27
2022-10-17T05:06:30.254Z,22.08
2022-10-17T05:09:17.825Z,20.25
2022-10-17T05:11:45.290Z,21.90
2022-10-17T05:14:13.482Z,24.08
2022-10-17T05:16:40.870Z,20.77
2022-10-17T05:19:08.844Z,21.33
2022-10-17T05:21:42.862Z,23.95
2022-10-17T05:24:11.104Z,22.55
2022-10-17T05:26:39.941Z,22.42
2022-10-17T05:29:07.421Z,24.77
2022-10-17T05:31:38.930Z,26.20
2022-10-17T05:34:10.242Z,22.20
2022-10-17T05:36:40.464Z,24.83
2022-10-17T05:39:09.017Z,23.23
2022-10-17T05:41:37.865Z,22.92
2022-10-17T05:44:05.900Z,25.33
2022-10-17T05:46:43.189Z,27.42
2022-10-17T05:49:25.240Z,22.52
2022-10-17T05:51:58.217Z,23.45
2022-10-17T05:54:26.926Z,21.88
2022-10-17T05:56:54.559Z,19.58
2022-10-17T05:59:26.334Z,25.10
2022-10-17T06:02:13.657Z,21.45
2022-10-17T06:04:45.658Z,22.65
2022-10-17T06:07:17.427Z,22.65
2022-10-17T06:12:12.883Z,21.90
2022-10-17T06:14:43.265Z,24.83
2022-10-17T06:17:15.931Z,23.42
2022-10-17T06:19:45.010Z,22.00
2022-10-17T06:22:14.553Z,22.95
2022-10-17T06:24:42.640Z,24.80
2022-10-17T06:27:11.960Z,24.58
2022-10-17T06:29:41.299Z,27.20
2022-10-17T06:32:14.906Z,25.50
2022-10-17T06:34:45.629Z,25.45
2022-10-17T06:37:13.119Z,23.00
2022-10-17T06:39:42.008Z,27.10
2022-10-17T06:42:18.229Z,20.52
2022-10-17T06:45:05.605Z,23.45
2022-10-17T06:48:05.418Z,22.85
2022-10-17T06:50:44.093Z,21.65
2022-10-17T06:53:18.789Z,23.13
2022-10-17T06:56:05.845Z,23.95
2022-10-17T06:59:02.104Z,24.60
2022-10-17T07:01:32.623Z,27.25
2022-10-17T07:04:01.179Z,27.40
2022-10-17T07:07:09.551Z,27.00
2022-10-17T07:09:37.550Z,23.00
2022-10-17T07:12:08.209Z,28.15
2022-10-17T07:14:36.686Z,22.67
2022-10-17T07:17:04.685Z,22.83
2022-10-17T07:19:33.948Z,23.00
2022-10-17T07:22:03.694Z,25.80
2022-10-17T07:24:33.276Z,23.95
2022-10-17T07:27:10.920Z,25.15
2022-10-17T07:29:38.740Z,24.38
2022-10-17T07:32:12.396Z,26.25
2022-10-17T07:34:42.080Z,25.55
2022-10-17T07:37:11.970Z,22.10
2022-10-17T07:39:42.648Z,23.23
2022-10-17T07:42:10.894Z,26.77
2022-10-17T07:44:38.490Z,24.05
2022-10-17T07:47:06.523Z,27.50
2022-10-17T07:49:42.455Z,24.25
2022-10-17T07:52:13.083Z,26.67
2022-10-17T07:54:40.501Z,23.05
2022-10-17T07:57:10.480Z,25.60
2022-10-17T07:59:39.044Z,24.33
2022-10-17T08:02:08.198Z,26.73
2022-10-17T08:04:38.491Z,22.40
2022-10-17T08:07:20.996Z,30.65
2022-10-17T08:09:50.884Z,24.65
2022-10-17T08:12:18.366Z,28.65
2022-10-17T08:14:45.765Z,31.33
2022-10-17T08:17:13.315Z,28.08
2022-10-17T08:19:41.284Z,30.23
2022-10-17T08:22:08.875Z,27.30
2022-10-17T08:24:37.676Z,23.35
2022-10-17T08:27:11.469Z,26.80
2022-10-17T08:29:39.715Z,27.67
2022-10-17T08:32:11.396Z,31.05
2022-10-17T08:34:39.017Z,29.83
2022-10-17T08:37:08.674Z,30.98
2022-10-17T08:39:36.143Z,35.53
2022-10-17T08:42:03.684Z,26.60
2022-10-17T08:44:41.287Z,29.83
2022-10-17T08:47:17.417Z,31.55
2022-10-17T08:49:49.182Z,29.25
2022-10-17T08:52:43.323Z,27.40
2022-10-17T08:57:48.871Z,28.52
2022-10-17T09:00:21.263Z,36.55
2022-10-17T09:02:59.257Z,32.30
2022-10-17T09:05:45.073Z,31.00
2022-10-17T09:08:42.032Z,31.20
2022-10-17T09:11:19.139Z,28.85
2022-10-17T09:13:55.816Z,30.10
2022-10-17T09:16:41.873Z,28.85
2022-10-17T09:19:35.020Z,30.60
2022-10-17T09:25:49.394Z,30.35
2022-10-17T09:28:37.667Z,32.53
2022-10-17T09:31:08.527Z,33.55
2022-10-17T09:33:53.735Z,35.20
2022-10-17T09:36:25.249Z,32.20
2022-10-17T09:39:15.660Z,34.25
2022-10-17T09:41:47.851Z,33.65
2022-10-17T09:44:22.699Z,32.55
2022-10-17T09:46:58.356Z,31.15
2022-10-17T09:49:47.408Z,32.10
2022-10-17T09:52:20.082Z,32.30
2022-10-17T09:57:23.249Z,29.85
2022-10-17T10:00:01.074Z,32.53
2022-10-17T10:02:40.867Z,37.15
2022-10-17T10:05:23.088Z,33.35
2022-10-17T10:08:05.042Z,31.55
2022-10-17T10:10:32.679Z,30.88
2022-10-17T10:13:21.055Z,33.10
2022-10-17T10:15:50.162Z,34.65
2022-10-17T10:21:09.966Z,39.53
2022-10-17T10:23:42.808Z,29.13
2022-10-17T10:26:21.079Z,35.70
2022-10-17T10:31:57.717Z,32.75
2022-10-17T10:34:29.973Z,37.35
2022-10-17T10:36:57.485Z,30.48
2022-10-17T10:39:32.708Z,28.17
2022-10-17T10:42:04.533Z,31.50
2022-10-17T10:44:33.950Z,26.88
2022-10-17T10:52:44.192Z,27.13
2022-10-17T10:55:30.422Z,26.48
2022-10-17T10:58:07.873Z,22.00
2022-10-17T11:00:36.053Z,23.17
2022-10-17T11:03:17.533Z,25.20
2022-10-17T11:05:47.274Z,21.60
2022-10-17T11:08:22.120Z,22.08
2022-10-17T11:11:04.890Z,27.15
2022-10-17T11:13:40.651Z,22.33
2022-10-17T11:16:20.427Z,14.20
2022-10-17T11:19:00.921Z,16.60
2022-10-17T11:24:30.857Z,6.90
2022-10-17T11:27:03.712Z,7.40
2022-10-17T11:29:32.764Z,5.22
2022-10-17T11:32:14.949Z,7.55
2022-10-17T11:34:45.009Z,6.35
2022-10-17T11:37:17.750Z,7.32
2022-10-17T11:39:48.792Z,6.30
2022-10-17T11:42:27.278Z,9.32
2022-10-17T11:44:58.936Z,9.93
2022-10-17T11:47:28.398Z,9.20
2022-10-17T11:52:44.027Z,11.00
2022-10-17T11:55:18.563Z,10.70
2022-10-17T11:57:45.988Z,12.57
2022-10-17T12:00:25.790Z,10.95
2022-10-17T12:02:59.437Z,14.35
2022-10-17T12:05:37.082Z,11.02
2022-10-17T12:08:10.341Z,12.55
2022-10-17T12:10:44.043Z,12.60
2022-10-17T12:13:31.902Z,13.30
2022-10-17T12:16:19.856Z,13.95
2022-10-17T12:18:52.711Z,15.45
2022-10-17T12:21:20.163Z,14.95
2022-10-17T12:23:57.573Z,14.57
2022-10-17T12:26:29.328Z,15.93
2022-10-17T12:28:58.734Z,15.95
2022-10-17T12:34:01.490Z,14.10
2022-10-17T12:36:29.403Z,14.45
2022-10-17T12:38:56.875Z,15.02
2022-10-17T12:41:39.691Z,14.98
2022-10-17T12:44:16.768Z,18.85
2022-10-17T12:46:47.084Z,19.75
2022-10-17T12:49:22.460Z,16.70
2022-10-17T12:52:25.487Z,18.38
2022-10-17T12:55:10.542Z,15.00
2022-10-17T12:57:40.189Z,18.63
2022-10-17T13:00:34.042Z,17.17
2022-10-17T13:03:14.941Z,17.23
2022-10-17T13:05:44.667Z,16.17
2022-10-17T13:08:20.395Z,16.67
2022-10-17T13:10:51.633Z,17.40
2022-10-17T13:13:21.919Z,16.48
2022-10-17T13:15:53.162Z,12.55
2022-10-17T13:18:22.151Z,13.25
2022-10-17T13:20:59.884Z,12.05
2022-10-17T13:23:32.449Z,13.23
2022-10-17T13:26:04.297Z,13.75
2022-10-17T13:28:38.498Z,12.05
2022-10-17T13:31:07.240Z,11.48
2022-10-17T13:33:39.145Z,11.52
2022-10-17T13:36:15.870Z,12.30
2022-10-17T13:38:43.853Z,13.38
2022-10-17T13:41:35.759Z,9.55
2022-10-17T13:44:05.323Z,9.18
2022-10-17T13:49:13.754Z,10.82
2022-10-17T13:51:44.141Z,10.70
2022-10-17T13:54:31.561Z,9.98
2022-10-17T13:57:06.248Z,8.80
2022-10-17T13:59:41.048Z,7.00
2022-10-17T14:02:21.699Z,12.32
2022-10-17T14:05:16.088Z,13.27
2022-10-17T14:08:11.306Z,7.97
2022-10-17T14:10:40.754Z,9.98
2022-10-17T14:13:09.269Z,8.67
2022-10-17T14:15:37.654Z,11.73
2022-10-17T14:18:08.052Z,13.45
2022-10-17T14:23:30.462Z,10.25
2022-10-17T14:26:09.113Z,10.02
2022-10-17T14:28:39.273Z,10.65
2022-10-17T14:31:26.006Z,11.48
2022-10-17T14:33:54.340Z,11.73
2022-10-17T14:36:22.525Z,7.88
2022-10-17T14:38:52.190Z,9.40
2022-10-17T14:41:41.982Z,10.55
2022-10-17T14:44:17.129Z,8.50
2022-10-17T14:46:49.769Z,8.85
2022-10-17T14:49:23.391Z,8.85
2022-10-17T14:52:15.268Z,9.05
2022-10-17T14:54:50.167Z,6.60
2022-10-17T14:57:17.495Z,11.82
2022-10-17T15:00:00.170Z,9.50
2022-10-17T15:02:32.095Z,8.05
2022-10-17T15:04:59.601Z,9.00
2022-10-17T15:07:27.068Z,9.38
2022-10-17T15:09:54.888Z,8.27
2022-10-17T15:12:25.173Z,12.38
2022-10-17T15:14:53.242Z,7.95
2022-10-17T15:17:23.237Z,8.27
2022-10-17T15:19:50.938Z,11.52
2022-10-17T15:22:21.597Z,9.20
2022-10-17T15:24:50.076Z,14.85
2022-10-17T15:27:18.667Z,6.93
2022-10-17T15:29:46.465Z,9.50
2022-10-17T15:32:19.812Z,7.97
2022-10-17T15:34:49.713Z,8.73
2022-10-17T15:37:18.448Z,9.23
2022-10-17T15:39:46.895Z,9.77
2022-10-17T15:42:14.417Z,8.17
2022-10-17T15:44:44.314Z,9.35
2022-10-17T15:47:19.450Z,7.15
2022-10-17T15:49:46.853Z,8.23
2022-10-17T15:52:14.209Z,12.90
2022-10-17T15:54:41.828Z,9.90
2022-10-17T15:57:15.389Z,9.20
2022-10-17T15:59:42.964Z,8.82
2022-10-17T16:02:13.781Z,10.85
2022-10-17T16:04:41.180Z,14.60
2022-10-17T16:07:08.681Z,13.60
2022-10-17T16:09:37.489Z,10.57
2022-10-17T16:12:06.074Z,7.70
2022-10-17T16:14:34.385Z,7.70
2022-10-17T16:17:01.957Z,9.57
2022-10-17T16:19:30.227Z,9.40
2022-10-17T16:22:04.434Z,8.95
2022-10-17T16:24:33.585Z,10.98
2022-10-17T16:27:01.370Z,9.93
2022-10-17T16:29:29.121Z,8.05
2022-10-17T16:31:56.477Z,10.05
2022-10-17T16:34:23.846Z,12.52
2022-10-17T16:36:51.211Z,12.25
2022-10-17T16:39:19.364Z,9.10
2022-10-17T16:41:47.205Z,16.80
2022-10-17T16:44:18.901Z,13.25
2022-10-17T16:49:45.267Z,7.70
2022-10-17T16:52:23.367Z,18.45
2022-10-17T16:54:51.120Z,11.43
2022-10-17T16:57:19.304Z,15.38
2022-10-17T16:59:49.191Z,11.82
2022-10-17T17:02:21.181Z,11.23
2022-10-17T17:04:50.807Z,8.55
2022-10-17T17:07:19.883Z,9.43
2022-10-17T17:09:47.988Z,9.77
2022-10-17T17:12:17.997Z,9.77
2022-10-17T17:14:48.481Z,8.10
2022-10-17T17:17:24.678Z,8.65
2022-10-17T17:20:03.973Z,9.18
2022-10-17T17:22:31.458Z,8.50
2022-10-17T17:24:59.372Z,9.98
2022-10-17T17:27:30.549Z,14.02
2022-10-17T17:29:58.277Z,12.07
2022-10-17T17:32:25.797Z,10.45
2022-10-17T17:34:53.233Z,15.45
2022-10-17T17:37:23.675Z,7.28
2022-10-17T17:39:51.200Z,9.93
2022-10-17T17:42:19.926Z,10.63
2022-10-17T17:44:50.556Z,28.88
2022-10-17T17:47:18.315Z,30.58
2022-10-17T17:49:45.626Z,14.00
2022-10-17T17:52:13.270Z,70.65
2022-10-17T17:54:44.763Z,19.75
2022-10-17T17:57:12.867Z,10.57
2022-10-17T17:59:41.513Z,13.10
2022-10-17T18:02:11.672Z,12.10
2022-10-17T18:04:39.244Z,14.32
2022-10-17T18:07:06.821Z,12.07
2022-10-17T18:09:34.578Z,11.85
2022-10-17T18:12:02.027Z,12.05
2022-10-17T18:14:31.158Z,11.65
2022-10-17T18:16:59.203Z,11.02
2022-10-17T18:19:28.508Z,13.23
2022-10-17T18:24:25.134Z,13.52
2022-10-17T18:26:58.159Z,13.88
2022-10-17T18:29:25.722Z,12.00
2022-10-17T18:31:53.443Z,7.97
2022-10-17T18:34:20.944Z,11.40
2022-10-17T18:36:48.522Z,9.13
2022-10-17T18:39:16.066Z,11.07
2022-10-17T18:41:43.555Z,12.23
2022-10-17T18:44:12.669Z,15.05
2022-10-17T18:46:41.412Z,10.57
2022-10-17T18:49:11.975Z,12.25
2022-10-17T18:51:42.907Z,10.93
2022-10-17T18:54:16.610Z,10.80
2022-10-17T18:56:45.063Z,18.65
2022-10-17T18:59:12.476Z,14.48
2022-10-17T19:01:49.486Z,10.45
2022-10-17T19:04:16.975Z,13.40
2022-10-17T19:06:44.547Z,10.85
2022-10-17T19:09:12.916Z,12.27
2022-10-17T19:11:43.879Z,12.93
2022-10-17T19:14:13.650Z,9.82
2022-10-17T19:16:43.189Z,15.38
2022-10-17T19:19:22.296Z,13.90
2022-10-17T19:21:50.210Z,53.05
2022-10-17T19:24:27.988Z,30.25
2022-10-17T19:26:56.643Z,50.25
2022-10-17T19:29:25.884Z,38.70
2022-10-17T19:31:53.477Z,23.25
2022-10-17T19:34:21.172Z,33.38
2022-10-17T19:36:52.162Z,29.77
2022-10-17T19:39:21.053Z,30.27
2022-10-17T19:41:49.303Z,26.77
2022-10-17T19:44:17.320Z,18.27
2022-10-17T19:46:46.767Z,26.80
2022-10-17T19:49:17.616Z,20.85
2022-10-17T19:51:45.292Z,17.30
2022-10-17T19:54:13.020Z,17.98
2022-10-17T19:56:45.780Z,18.67
2022-10-17T19:59:14.265Z,23.73
2022-10-17T20:01:41.985Z,19.53
2022-10-17T20:04:10.942Z,30.58
2022-10-17T20:06:38.684Z,20.10
2022-10-17T20:09:07.385Z,18.80
2022-10-17T20:11:36.370Z,21.27
2022-10-17T20:14:03.854Z,17.83
2022-10-17T20:16:34.913Z,17.88
2022-10-17T20:19:03.858Z,21.23
2022-10-17T20:21:39.504Z,19.00
2022-10-17T20:24:07.907Z,19.02
2022-10-17T20:26:38.547Z,19.05
2022-10-17T20:29:14.186Z,17.17
2022-10-17T20:31:43.456Z,18.23
2022-10-17T20:34:13.087Z,20.77
2022-10-17T20:36:40.978Z,20.85
2022-10-17T20:39:08.730Z,22.15
2022-10-17T20:41:36.302Z,22.83
2022-10-17T20:44:03.858Z,19.52
2022-10-17T20:46:44.801Z,23.25
2022-10-17T20:49:20.136Z,24.27
2022-10-17T20:51:47.612Z,22.88
2022-10-17T20:54:15.151Z,33.67
2022-10-17T20:56:42.683Z,24.02
2022-10-17T20:59:12.727Z,23.20
2022-10-17T21:01:40.210Z,23.17
2022-10-17T21:04:33.303Z,26.30
2022-10-17T21:06:55.093Z,23.65
2022-10-17T21:09:22.773Z,19.08
2022-10-17T21:11:54.281Z,21.73
2022-10-17T21:14:25.099Z,18.58
2022-10-17T21:16:52.551Z,22.98
2022-10-17T21:19:21.721Z,19.92
2022-10-17T21:21:49.183Z,21.88
2022-10-17T21:24:19.276Z,20.80
2022-10-17T21:26:47.863Z,18.13
2022-10-17T21:29:15.400Z,16.83
2022-10-17T21:31:44.112Z,18.08
2022-10-17T21:34:13.227Z,20.33
2022-10-17T21:36:40.804Z,21.70
2022-10-17T21:41:36.059Z,20.40
2022-10-17T21:44:05.666Z,22.20
2022-10-17T21:46:33.137Z,25.70
2022-10-17T21:49:01.168Z,19.88
2022-10-17T21:51:28.783Z,21.27
2022-10-17T21:53:57.368Z,21.60
2022-10-17T21:56:28.238Z,20.07
2022-10-17T21:58:55.545Z,22.42
2022-10-17T22:01:26.778Z,24.65
2022-10-17T22:03:55.634Z,23.13
2022-10-17T22:06:40.658Z,25.65
2022-10-17T22:09:16.554Z,23.58
2022-10-17T22:11:45.524Z,27.23
2022-10-17T22:14:14.533Z,28.02
2022-10-17T22:16:44.227Z,43.50
2022-10-17T22:19:12.507Z,43.30
2022-10-17T22:21:39.900Z,42.55
2022-10-17T22:24:08.656Z,39.33
2022-10-17T22:26:36.945Z,41.17
2022-10-17T22:29:05.322Z,33.33
2022-10-17T22:31:32.701Z,35.33
2022-10-17T22:34:00.097Z,38.10
2022-10-17T22:36:30.729Z,31.95
2022-10-17T22:38:58.103Z,34.72
2022-10-17T22:41:25.508Z,32.47
2022-10-17T22:43:52.755Z,35.90
2022-10-17T22:46:20.130Z,35.35
2022-10-17T22:48:47.541Z,50.80
2022-10-17T22:51:15.302Z,40.88
2022-10-17T22:53:45.150Z,44.63
2022-10-17T22:56:14.035Z,39.60
2022-10-17T22:58:44.377Z,38.42
2022-10-17T23:01:15.023Z,38.45
2022-10-17T23:03:44.450Z,50.50
2022-10-17T23:06:11.850Z,50.97
2022-10-17T23:08:39.640Z,47.00
2022-10-17T23:11:10.126Z,43.47
2022-10-17T23:13:37.657Z,50.47
2022-10-17T23:16:05.088Z,47.30
2022-10-17T23:18:32.405Z,49.85
2022-10-17T23:20:59.705Z,49.80
2022-10-17T23:23:26.994Z,45.72
2022-10-17T23:25:54.270Z,41.65
2022-10-17T23:28:21.658Z,30.45
2022-10-17T23:30:48.889Z,30.35
2022-10-17T23:33:16.368Z,32.25
2022-10-17T23:35:46.006Z,33.03
2022-10-17T23:38:13.338Z,25.00
2022-10-17T23:40:40.571Z,24.77
2022-10-17T23:43:07.846Z,22.00
2022-10-17T23:45:37.237Z,22.73
2022-10-17T23:48:05.817Z,22.00
2022-10-17T23:50:33.058Z,20.48
2022-10-17T23:53:00.357Z,24.08
2022-10-17T23:55:27.625Z,22.60
2022-10-17T23:57:54.808Z,21.13
